Zprávy METAR z letišť v České republice

LKPR - Praha Ruzyně, Česká republika
Vzdálenost od této stanice: ZJZ 98km
Aktualizováno: 23.10.2018 17:30
 
Teplota vzduchu: 8°C
Chlad větru: 4°C
Vítr: ZJZ 30 km/h
nárazy až 48 km/h
Rosný bod: 4°C
Vlhkost vzduchu: 76%
Tlak vzduchu: 1014 hPa
Oblačnost: skoro zataženo
Viditelnost: 10 km
Detaily oblačnosti: skoro zataženo 914 m
2018/10/23 15:30 LKPR 231530Z 24016G26KT 9999 BKN030 08/04 Q1014 NOSIG
LKKB - Praha Kbely, Česká republika
Vzdálenost od této stanice: ZJZ 81km
Aktualizováno: 23.10.2018 17:00
 
Teplota vzduchu: 10°C
Chlad větru: 6°C
Vítr: ZJZ 39 km/h
Rosný bod: 3°C
Vlhkost vzduchu: 62%
Tlak vzduchu: 1014 hPa
Oblačnost: zataženo
Viditelnost: 10 km
Detaily oblačnosti: skoro zataženo 1006 m
zataženo 1189 m
2018/10/23 15:00 LKKB 231500Z 24021KT 9999 BKN033 OVC039 10/03 Q1014 NOSIG
 
LKVO - Vodochody, Česká republika
Vzdálenost od této stanice: ZJZ 84km
Aktualizováno: 23.10.2018 15:00
Není aktuální
 
Teplota vzduchu: 11°C
Vítr: Z 35 km/h
Rosný bod: 3°C
Vlhkost vzduchu: 58%
Tlak vzduchu: 1015 hPa
Stav počasí: mírnější déšť
Oblačnost: oblačno
Viditelnost: 10 km
2018/10/23 13:00 LKVO 231300Z 27019KT 9999 -RA NSC 11/03 Q1015
LKPD - Pardubice, Česká republika
Vzdálenost od této stanice: JJV 56km
Aktualizováno: 23.10.2018 17:00
 
Teplota vzduchu: 11°C
Vítr: Z 43 km/h
nárazy až 65 km/h
Rosný bod: 3°C
Vlhkost vzduchu: 58%
Tlak vzduchu: 1014 hPa
Oblačnost: zataženo
Viditelnost: 10 km
Detaily oblačnosti: skoro zataženo 1006 m
zataženo 1341 m
2018/10/23 15:00 LKPD 231500Z 27023G35KT 9999 BKN033 OVC044 11/03 Q1014 NOSIG
 
LKCV - Čáslav, Česká republika
Vzdálenost od této stanice: J 63km
Aktualizováno: 23.10.2018 17:00
 
Teplota vzduchu: 10°C
Chlad větru: 6°C
Vítr: Z 35 km/h
Rosný bod: 3°C
Vlhkost vzduchu: 62%
Tlak vzduchu: 1014 hPa
Oblačnost: zataženo
Viditelnost: 10 km
Detaily oblačnosti: zataženo 1158 m
2018/10/23 15:00 LKCV 231500Z 26019KT 9999 OVC038 10/03 Q1014 NOSIG
LKLB - Liberec, Česká republika
Vzdálenost od této stanice: SZ 45km
Aktualizováno: 02.01.2013 07:02
Není aktuální
 
Teplota vzduchu: -1°C
Vítr: JJV 6 km/h
Rosný bod: -2°C
Vlhkost vzduchu: 93%
Tlak vzduchu: 1016 hPa
Oblačnost: skoro zataženo
Viditelnost: 10 km
Detaily oblačnosti: skoro jasno 488 m
skoro zataženo 1311 m
2013/01/02 06:02 LKLB 020602Z 16003KT 9999 FEW016 BKN043 M01/M02 Q1016
 
LKKU - Kunovice, Česká republika
Vzdálenost od této stanice: JV 213km
Aktualizováno: 23.10.2018 16:00
Není aktuální
 
Teplota vzduchu: 11°C
Vítr: JZ 13 km/h
Rosný bod: 3°C
Vlhkost vzduchu: 58%
Tlak vzduchu: 1015 hPa
Stav počasí: Jasno
Oblačnost: jasná obloha
Viditelnost: více než 10 km
2018/10/23 14:00 LKKU 231400Z 23007KT 180V270 CAVOK 11/03 Q1015
LKTB - Brno Tuřany, Česká republika
Vzdálenost od této stanice: JJV 174km
Aktualizováno: 23.10.2018 17:30
 
Teplota vzduchu: 13°C
Vítr: Z 24 km/h
Rosný bod: 1°C
Vlhkost vzduchu: 44%
Tlak vzduchu: 1014 hPa
Oblačnost: skoro jasno
Viditelnost: 10 km
Detaily oblačnosti: skoro jasno 1402 m
2018/10/23 15:30 LKTB 231530Z 26013KT 9999 FEW046 13/01 Q1014 NOSIG
 
LKKV - Karlovy Vary, Česká republika
Vzdálenost od této stanice: Z 187km
Aktualizováno: 23.10.2018 17:30
 
Teplota vzduchu: 5°C
Chlad větru: 1°C
Vítr: Z 22 km/h
nárazy až 41 km/h
Rosný bod: 4°C
Vlhkost vzduchu: 93%
Tlak vzduchu: 1016 hPa
Stav počasí: Mírnější déšť, Opar
Oblačnost: zataženo
Viditelnost: 2 km
Detaily oblačnosti: skoro zataženo 274 m
zataženo 457 m
2018/10/23 15:30 LKKV 231530Z 26012G22KT 200V280 2000 -RA BR BKN009 OVC015 05/04 Q1016
LKMT - Ostrava Mošnov, Česká republika
Vzdálenost od této stanice: VJV 208km
Aktualizováno: 23.10.2018 17:30
 
Teplota vzduchu: 9°C
Chlad větru: 6°C
Vítr: JZ 26 km/h
Rosný bod: 2°C
Vlhkost vzduchu: 62%
Tlak vzduchu: 1011 hPa
Stav počasí: mírnější déšť
Oblačnost: skoro jasno
Viditelnost: 10 km
Detaily oblačnosti: skoro jasno 1402 m
2018/10/23 15:30 LKMT 231530Z 22014KT 9999 -RA FEW046 09/02 Q1011 NOSIG
 
LKNA - Náměšť n. Osl., Česká republika
Vzdálenost od této stanice: JJV 154km
Aktualizováno: 23.10.2018 17:00
 
Teplota vzduchu: 11°C
Vítr: Z 31 km/h
Rosný bod: 0°C
Vlhkost vzduchu: 47%
Tlak vzduchu: 1014 hPa
Stav počasí: mírnější déšť
Oblačnost: oblačno
Viditelnost: 10 km
2018/10/23 15:00 LKNA 231500Z 26017KT 9999 -RA NSC 11/00 Q1014 NOSIG
LKLN - Plzeň Líně, Česká republika
Vzdálenost od této stanice: ZJZ 184km
Aktualizováno: 23.10.2018 17:00
 
Teplota vzduchu: 10°C
Chlad větru: 7°C
Vítr: Z 19 km/h
Rosný bod: 3°C
Vlhkost vzduchu: 62%
Tlak vzduchu: 1018 hPa
Oblačnost: zataženo
Viditelnost: 10 km
Detaily oblačnosti: skoro zataženo 1189 m
zataženo 1402 m
2018/10/23 15:00 LKLN 231500Z AUTO 26010KT 210V290 9999 BKN039 OVC046 10/03 Q1018
 
EDDC - Dresden/Klotzsche, Německo
Vzdálenost od této stanice: NNW 107km
Aktualizováno: 23.10.2018 17:20
 
Teplota vzduchu: 8°C
Chlad větru: 4°C
Vítr: Z 30 km/h
Rosný bod: 5°C
Vlhkost vzduchu: 82%
Tlak vzduchu: 1012 hPa
Stav počasí: Mírnější déšť, Mrholení
Oblačnost: skoro zataženo
Viditelnost: 6 km
Detaily oblačnosti: skoro jasno 366 m
skoro zataženo 457 m
2018/10/23 15:20 EDDC 231520Z 26016KT 210V300 6000 -RADZ FEW012 BKN015 08/05 Q1012 TEMPO 27020G35KT 3500 -RADZ BKN009
EDAC - Altenburg-Nobitz, Německo
Vzdálenost od této stanice: WNW 159km
Aktualizováno: 23.10.2018 17:20
 
Teplota vzduchu: 10°C
Chlad větru: 7°C
Vítr: ZJZ 22 km/h
Rosný bod: 6°C
Vlhkost vzduchu: 76%
Tlak vzduchu: 1015 hPa
Oblačnost: zataženo
Viditelnost: 10 km
Detaily oblačnosti: zataženo 762 m
2018/10/23 15:20 EDAC 231520Z 25012KT 9999 OVC025 10/06 Q1015
 
EDQM - Hof, Německo
Vzdálenost od této stanice: W 187km
Aktualizováno: 23.10.2018 17:20
 
Teplota vzduchu: 6°C
Chlad větru: 1°C
Vítr: ZJZ 33 km/h
Rosný bod: 3°C
Vlhkost vzduchu: 81%
Tlak vzduchu: 1017 hPa
Oblačnost: zataženo
Viditelnost: 10 km
Detaily oblačnosti: zataženo 305 m
2018/10/23 15:20 EDQM 231520Z 25018KT 9999 OVC010 06/03 Q1017
ETSH - Holzdorf, Německo
Vzdálenost od této stanice: NNW 188km
Aktualizováno: 23.10.2018 17:29
 
Teplota vzduchu: 10°C
Chlad větru: 7°C
Vítr: ZJZ 31 km/h
Rosný bod: 8°C
Vlhkost vzduchu: 88%
Tlak vzduchu: 1010 hPa
Stav počasí: Mírnější déšť, Mrholení
Oblačnost: skoro zataženo
Viditelnost: 7 km
Detaily oblačnosti: skoro jasno 366 m
skoro zataženo 488 m
2018/10/23 15:29 ETSH 231529Z 25017KT 7000 -RADZ FEW012 BKN016 10/08 Q1010 WHT WHT TEMPO GRN
 
EPWR - Wroclaw Strachowice, Polsko
Vzdálenost od této stanice: ENE 191km
Aktualizováno: 23.10.2018 17:30
 
Teplota vzduchu: 9°C
Chlad větru: 4°C
Vítr: Z 39 km/h
nárazy až 57 km/h
Rosný bod: 6°C
Vlhkost vzduchu: 82%
Tlak vzduchu: 1008 hPa
Stav počasí: mírnější déšť
Oblačnost: skoro zataženo
Viditelnost: 10 km
Detaily oblačnosti: skoro zataženo 488 m
2018/10/23 15:30 EPWR 231530Z 28021G31KT 9999 -RA BKN016 09/06 Q1008
ETIC - Grafenwöhr, Německo
Vzdálenost od této stanice: WSW 194km
Aktualizováno: 23.10.2018 17:26
 
Teplota vzduchu: 9°C
Chlad větru: 7°C
Vítr: Z 11 km/h
nárazy až 30 km/h
Rosný bod: 3°C
Vlhkost vzduchu: 66%
Tlak vzduchu: 1019 hPa
Oblačnost: zataženo
Viditelnost: 10 km
Detaily oblačnosti: zataženo 884 m
2018/10/23 15:26 ETIC 231526Z AUTO 26006G16KT 9999 OVC029 09/03 A3009 RMK AO2 SLP205 $
 
EDDP - Liepzig/Schkeuditz, Německo
Vzdálenost od této stanice: NW 202km
Aktualizováno: 23.10.2018 17:20
 
Teplota vzduchu: 10°C
Chlad větru: 6°C
Vítr: ZJZ 48 km/h
Rosný bod: 7°C
Vlhkost vzduchu: 82%
Tlak vzduchu: 1013 hPa
Oblačnost: zataženo
Viditelnost: 10 km
Detaily oblačnosti: skoro zataženo 457 m
zataženo 853 m
2018/10/23 15:20 EDDP 231520Z 25026KT 9999 BKN015 OVC028 10/07 Q1013 TEMPO 25025G35KT BKN012
EPZG - Zielena Gora, Polsko
Vzdálenost od této stanice: NNE 224km
Aktualizováno: 23.10.2018 15:00
Není aktuální
 
Teplota vzduchu: 8°C
Chlad větru: 3°C
Vítr: ZJZ 41 km/h
nárazy až 61 km/h
Rosný bod: 7°C
Vlhkost vzduchu: 93%
Tlak vzduchu: 1009 hPa
Stav počasí: Mírnější déšť, Opar
Oblačnost: zataženo
Viditelnost: 3 km
Detaily oblačnosti: oblačno 244 m
skoro zataženo 366 m
zataženo 518 m
2018/10/23 13:00 EPZG 231300Z 24022G33KT 2700 -RA BR SCT008 BKN012 OVC017 08/07 Q1009
 
ETIH - Hohenfels U.S. Army Garrison Bavaria, Německo
Vzdálenost od této stanice: WSW 226km
Aktualizováno: 23.10.2018 16:56
 
Teplota vzduchu: 10°C
Chlad větru: 8°C
Vítr: ZJZ 15 km/h
Rosný bod: 6°C
Vlhkost vzduchu: 76%
Tlak vzduchu: 1020.7 hPa
Oblačnost: zataženo
Viditelnost: 10 km
Detaily oblačnosti: skoro jasno 1463 m
zataženo 1829 m
2018/10/23 14:56 ETIH 231456Z AUTO 25008KT 9999 FEW048 OVC060 10/06 A3014 RMK AO2 RAB38E49 SLP216 P0000 60000 T01000058 57027 $
LOWL - Linz (CIV/MIL), Rakousko
Vzdálenost od této stanice: S 232km
Aktualizováno: 23.10.2018 17:20
 
Teplota vzduchu: 11°C
Vítr: Z 35 km/h
Rosný bod: 7°C
Vlhkost vzduchu: 77%
Tlak vzduchu: 1020 hPa
Stav počasí: mírnější déšť
Oblačnost: skoro zataženo
Viditelnost: 10 km
Detaily oblačnosti: skoro jasno 762 m
skoro zataženo 2134 m
2018/10/23 15:20 LOWL 231520Z 27019KT 9999 -RA FEW025 BKN070 11/07 Q1020 NOSIG
 
EDDB - Berlin/Schönefeld, Německo
Vzdálenost od této stanice: NNW 242km
Aktualizováno: 23.10.2018 17:20
 
Teplota vzduchu: 11°C
Vítr: Z 41 km/h
Rosný bod: 10°C
Vlhkost vzduchu: 94%
Tlak vzduchu: 1007 hPa
Stav počasí: Mírnější déšť, Mrholení
Oblačnost: skoro zataženo
Viditelnost: 6 km
Detaily oblačnosti: skoro zataženo 244 m
2018/10/23 15:20 EDDB 231520Z 27022KT 6000 -RADZ BKN008 11/10 Q1007 TEMPO 26020G35KT BKN011

Metar display script od Saratoga-Weather.org
upravil a přeložil Miloš Jiřík